Acme, PA (15610)

9:29 AM EST on December 05, 2016 (GMT -0500)
Bear Rocks | | Change Station

Elev 1732 ft 40.12 °N, 79.47 °W | Updated 14 seconds ago

Mostly Cloudy
Mostly Cloudy
38.0 °F
Feels Like 38 °F
N
3.0
Wind Variable Wind from NE

Today
High -- | Low -- °F
--% Chance of Precip.
Yesterday
High -- | Low -- °F
Precip. -- in
Pressure 30.05 in
Visibility 15.0 miles
Clouds Mostly Cloudy 4000 ft
Windchill 38 °F
Dew Point 35 °F
Humidity 91%
Rainfall 0.11 in
Snow Depth Not available.
7:25 AM 4:51 PM
Waxing Crescent, 32% visible
METAR KLBE 051350Z 29010KT 15SM BKN040 05/02 A3005
Pressure 30.05 in
Visibility 15.0 miles
Clouds Mostly Cloudy 4000 ft
Windchill 38 °F
Dew Point 35 °F
Humidity 91%
Rainfall 0.11 in
Snow Depth Not available.
7:25 AM 4:51 PM
Waxing Crescent, 32% visible
METAR KLBE 051350Z 29010KT 15SM BKN040 05/02 A3005

10-Day Weather Forecast

Almanac

Astronomy

Dec. 05, 2016 Rise Set
Actual Time
Civil Twilight
Nautical Twilight
Astronomical Twilight
Moon
Length of Visible Light
Length of Day
Tomorrow will be .
, % of the Moon is Illuminated

Today's Extremes

State Highs State Lows

Community

WunderPhotos

Upload Photos

1,955,782 photos uploaded!

WunderBlog® & News

Nearby

Air Quality

  Air Quality AQ Index Pollutant
Not available.

Snow Depth

Station Depth Elevation

Earthquake Activity

City Distance Mag. Time & Date
Minimum magnitude displayed is 2.5.

Coastal Water Temperatures

Place Temperature

Stations

Nearby Weather Stations

Station Location Temp. Windchill Dew Point Humidity Wind Precip. Elev Updated Type
                   

Watches & Warnings

There are currently no watches in effect.